ARG1036 SAVE-SAZS
Flight info
| Callsign | ARG1036 |
|---|---|
| Flight time | N/A |
| Altitude | 16000 |
| Route | TORES TORES2Q |
| Aircraft | CRJ7/M-SDFGIRWY/S |
Departure
| Time | 2026-05-06 21:46 |
|---|---|
| Airport | Esquel Brigadier Antonio Parodi International Airport (SAVE) |
Arrival
| Time | N/A |
|---|---|
| Airport | Teniente Luis Candelaria International Airport (SAZS) |
| Time | Latitude | Longitude | Altitude | Speed | Heading |
|---|---|---|---|---|---|
| 2026-05-06 21:31 | -42.90669 | -71.14678 | 2634 ft | 0 kts | 327° |
| 2026-05-06 21:40 | -42.90681 | -71.14666 | 2634 ft | 4 kts | 307° |
| 2026-05-06 21:40 | -42.90687 | -71.14635 | 2634 ft | 4 kts | 259° |
| 2026-05-06 21:40 | -42.90684 | -71.14605 | 2634 ft | 1 kts | 277° |
| 2026-05-06 21:40 | -42.90684 | -71.14604 | 2634 ft | 1 kts | 277° |
| 2026-05-06 21:44 | -42.90684 | -71.14605 | 2634 ft | 0 kts | 277° |
| 2026-05-06 21:44 | -42.90694 | -71.14625 | 2634 ft | 6 kts | 190° |
| 2026-05-06 21:44 | -42.90776 | -71.14599 | 2635 ft | 16 kts | 183° |
| 2026-05-06 21:45 | -42.90861 | -71.14626 | 2636 ft | 1 kts | 152° |
| 2026-05-06 21:45 | -42.90846 | -71.14547 | 2636 ft | 30 kts | 56° |
| 2026-05-06 21:45 | -42.90579 | -71.13985 | 2634 ft | 109 kts | 59° |
| 2026-05-06 21:45 | -42.90060 | -71.12871 | 2665 ft | 164 kts | 58° |
| 2026-05-06 21:46 | -42.89464 | -71.11437 | 3091 ft | 187 kts | 58° |
| 2026-05-06 21:46 | -42.88353 | -71.10408 | 3210 ft | 208 kts | 8° |
| 2026-05-06 21:46 | -42.86909 | -71.10743 | 3391 ft | 221 kts | 329° |
| 2026-05-06 21:46 | -42.85475 | -71.11757 | 3549 ft | 248 kts | 335° |
| 2026-05-06 21:47 | -42.83716 | -71.12490 | 3761 ft | 281 kts | 348° |
| 2026-05-06 21:47 | -42.81673 | -71.12774 | 4116 ft | 307 kts | 355° |
| 2026-05-06 21:47 | -42.79472 | -71.12831 | 4614 ft | 326 kts | 358° |
| 2026-05-06 21:47 | -42.77370 | -71.12789 | 5044 ft | 341 kts | 359° |
| 2026-05-06 21:48 | -42.75199 | -71.12754 | 5427 ft | 356 kts | 358° |
| 2026-05-06 21:48 | -42.72670 | -71.12782 | 5885 ft | 371 kts | 356° |
| 2026-05-06 21:48 | -42.70059 | -71.12917 | 6368 ft | 379 kts | 355° |
| 2026-05-06 21:48 | -42.67421 | -71.13066 | 6965 ft | 379 kts | 355° |
| 2026-05-06 21:49 | -42.64812 | -71.13196 | 6959 ft | 380 kts | 356° |